Time;durP1;ratioP1;P1;durP2;ratioP2;P2;SDS_P1;SDS_P2;PMS_P1;PMS_P2;Temp;Humidity;BMP_temperature;BMP_pressure;BME280_temperature;BME280_humidity;BME280_pressure;Samples;Min_cycle;Max_cycle;Signal;HPM_P1;HPM_P2
2022/08/17 00:00:16;;;;;;;;;;;19.40;99.90;;;;;;5008669;28;19928;-82
2022/08/17 00:03:14;;;;;;;;;;;19.40;99.90;;;;;;5014831;28;21264;-81
2022/08/17 00:05:42;;;;;;;;;;;19.30;99.90;;;;;;4961048;28;20377;-81
2022/08/17 00:08:08;;;;;;;;;;;19.30;99.90;;;;;;5008055;28;19932;-82
2022/08/17 00:10:34;;;;;;;;;;;19.30;99.90;;;;;;4996390;28;19925;-81
2022/08/17 00:13:24;;;;;;;;;;;19.20;99.90;;;;;;5024805;28;20436;-80
2022/08/17 00:15:50;;;;;;;;;;;19.20;99.90;;;;;;5019776;28;20007;-81
2022/08/17 00:18:16;;;;;;;;;;;19.20;99.90;;;;;;4994489;28;19956;-81
2022/08/17 00:20:41;;;;;;;;;;;19.10;99.90;;;;;;5007144;28;20011;-81
2022/08/17 00:23:09;;;;;;;;;;;19.10;99.90;;;;;;5013920;28;20011;-80
2022/08/17 00:25:35;;;;;;;;;;;19.10;99.90;;;;;;5006556;28;19929;-81
2022/08/17 00:28:01;;;;;;;;;;;19.10;99.90;;;;;;5012635;28;20579;-81
2022/08/17 00:30:26;;;;;;;;;;;19.00;99.90;;;;;;5025428;28;19924;-81
2022/08/17 00:32:52;;;;;;;;;;;19.00;99.90;;;;;;4995555;28;19932;-82
2022/08/17 00:35:22;;;;;;;;;;;19.00;99.90;;;;;;5012871;28;19929;-81
2022/08/17 00:37:47;;;;;;;;;;;19.00;99.90;;;;;;4995094;28;19924;-82
2022/08/17 00:40:13;;;;;;;;;;;19.00;99.90;;;;;;5011837;28;20302;-82
2022/08/17 00:42:39;;;;;;;;;;;18.90;99.90;;;;;;4998407;28;19921;-81
2022/08/17 00:45:07;;;;;;;;;;;19.00;99.90;;;;;;5013533;28;20452;-81
2022/08/17 00:47:33;;;;;;;;;;;18.80;99.90;;;;;;5009393;28;19956;-81
2022/08/17 00:49:59;;;;;;;;;;;18.80;99.90;;;;;;5014009;28;20006;-82
2022/08/17 00:52:28;;;;;;;;;;;18.80;99.90;;;;;;5026132;28;19928;-82
2022/08/17 00:54:54;;;;;;;;;;;18.70;99.90;;;;;;4997893;28;19925;-81
2022/08/17 00:57:31;;;;;;;;;;;18.70;99.90;;;;;;4999583;28;19921;-81
2022/08/17 01:00:05;;;;;;;;;;;18.60;99.90;;;;;;4994235;28;19925;-81
2022/08/17 01:02:33;;;;;;;;;;;18.60;99.90;;;;;;5017404;28;19967;-82
2022/08/17 01:04:59;;;;;;;;;;;18.60;99.90;;;;;;5011654;28;20345;-82
2022/08/17 01:07:25;;;;;;;;;;;18.50;99.90;;;;;;5027104;28;19929;-81
2022/08/17 01:09:51;;;;;;;;;;;18.50;99.90;;;;;;5028267;28;19931;-82
2022/08/17 01:12:17;;;;;;;;;;;18.50;99.90;;;;;;5020133;28;19929;-82
2022/08/17 01:14:42;;;;;;;;;;;18.40;99.90;;;;;;4992404;28;19925;-82
2022/08/17 01:17:08;;;;;;;;;;;18.40;99.90;;;;;;4998654;28;20283;-83
2022/08/17 01:19:37;;;;;;;;;;;18.40;99.90;;;;;;5028204;28;19957;-82
2022/08/17 01:22:09;;;;;;;;;;;18.40;99.90;;;;;;5018243;28;19960;-81
2022/08/17 01:24:36;;;;;;;;;;;18.40;99.90;;;;;;5021004;28;20267;-81
2022/08/17 01:27:02;;;;;;;;;;;18.30;99.90;;;;;;5030082;28;19932;-81
2022/08/17 01:29:29;;;;;;;;;;;18.30;99.90;;;;;;5017757;28;19925;-81
2022/08/17 01:31:56;;;;;;;;;;;18.20;99.90;;;;;;5010218;28;20402;-81
2022/08/17 01:34:23;;;;;;;;;;;18.20;99.90;;;;;;5015988;28;20128;-81
2022/08/17 01:36:49;;;;;;;;;;;18.10;99.90;;;;;;5022467;28;19924;-82
2022/08/17 01:39:35;;;;;;;;;;;18.30;99.90;;;;;;5029803;28;19924;-82
2022/08/17 01:42:14;;;;;;;;;;;18.00;99.90;;;;;;5011697;28;19985;-80
2022/08/17 01:44:40;;;;;;;;;;;18.00;99.90;;;;;;5022138;28;20350;-82
2022/08/17 01:47:06;;;;;;;;;;;17.90;99.90;;;;;;5023654;28;19921;-81
2022/08/17 01:49:31;;;;;;;;;;;17.90;99.90;;;;;;5015055;28;20370;-82
2022/08/17 01:52:02;;;;;;;;;;;17.90;99.90;;;;;;4997456;28;20438;-82
2022/08/17 01:54:28;;;;;;;;;;;17.90;99.90;;;;;;5006649;28;19929;-82
2022/08/17 01:56:54;;;;;;;;;;;17.90;99.90;;;;;;4994204;28;19940;-82
2022/08/17 01:59:19;;;;;;;;;;;17.90;99.90;;;;;;5013369;28;19924;-81
2022/08/17 02:01:46;;;;;;;;;;;17.80;99.90;;;;;;5020161;28;19921;-82
2022/08/17 02:04:15;;;;;;;;;;;17.80;99.90;;;;;;5011129;28;19943;-81
2022/08/17 02:06:42;;;;;;;;;;;17.80;99.90;;;;;;5013127;28;19929;-81
2022/08/17 02:09:08;;;;;;;;;;;17.80;99.90;;;;;;5028969;28;19931;-82
2022/08/17 02:11:36;;;;;;;;;;;17.80;99.90;;;;;;5013586;28;19925;-81
2022/08/17 02:14:03;;;;;;;;;;;17.80;99.90;;;;;;5015510;28;19936;-82
2022/08/17 02:16:33;;;;;;;;;;;17.80;99.90;;;;;;5013751;28;20019;-81
2022/08/17 02:19:00;;;;;;;;;;;17.70;99.90;;;;;;4997203;28;19929;-81
2022/08/17 02:21:26;;;;;;;;;;;17.80;99.90;;;;;;4997294;28;19928;-81
2022/08/17 02:23:53;;;;;;;;;;;17.70;99.90;;;;;;5012706;28;20003;-81
2022/08/17 02:26:19;;;;;;;;;;;17.60;99.90;;;;;;4990791;28;20404;-82
2022/08/17 02:28:45;;;;;;;;;;;17.60;99.90;;;;;;4990827;28;20043;-82
2022/08/17 02:31:11;;;;;;;;;;;17.60;99.90;;;;;;5014044;28;20083;-82
2022/08/17 02:33:37;;;;;;;;;;;17.80;99.90;;;;;;5011455;28;20289;-81
2022/08/17 02:36:03;;;;;;;;;;;17.70;99.90;;;;;;5013812;28;20900;-81
2022/08/17 02:38:30;;;;;;;;;;;17.60;99.90;;;;;;5011875;28;19936;-82
2022/08/17 02:40:57;;;;;;;;;;;17.60;99.90;;;;;;4995901;28;20633;-81
2022/08/17 02:43:23;;;;;;;;;;;17.60;99.90;;;;;;4991490;28;19932;-81
2022/08/17 02:45:50;;;;;;;;;;;17.60;99.90;;;;;;5008607;28;19924;-82
2022/08/17 02:48:16;;;;;;;;;;;17.50;99.90;;;;;;5013805;28;19932;-81
2022/08/17 02:50:41;;;;;;;;;;;17.60;99.90;;;;;;5013536;28;19921;-81
2022/08/17 02:53:07;;;;;;;;;;;17.50;99.90;;;;;;5012179;28;19948;-81
2022/08/17 02:55:36;;;;;;;;;;;17.50;99.90;;;;;;5013540;28;19971;-82
2022/08/17 02:58:02;;;;;;;;;;;17.50;99.90;;;;;;5007311;28;20459;-82
2022/08/17 03:00:32;;;;;;;;;;;17.40;99.90;;;;;;4997874;28;20020;-81
2022/08/17 03:02:58;;;;;;;;;;;17.40;99.90;;;;;;4997573;28;20571;-81
2022/08/17 03:05:25;;;;;;;;;;;17.30;99.90;;;;;;4991978;28;19921;-82
2022/08/17 03:07:50;;;;;;;;;;;17.40;99.90;;;;;;4995795;28;20150;-81
2022/08/17 03:10:16;;;;;;;;;;;17.30;99.90;;;;;;5014372;28;19921;-82
2022/08/17 03:12:43;;;;;;;;;;;17.40;99.90;;;;;;5013841;28;19953;-81
2022/08/17 03:15:20;;;;;;;;;;;17.40;99.90;;;;;;5019871;28;19925;-81
2022/08/17 03:17:45;;;;;;;;;;;17.40;99.90;;;;;;5007185;28;19925;-81
2022/08/17 03:20:11;;;;;;;;;;;17.50;99.90;;;;;;5019936;28;20436;-82
2022/08/17 03:22:39;;;;;;;;;;;17.70;99.90;;;;;;5018433;28;20015;-82
2022/08/17 03:25:09;;;;;;;;;;;17.50;99.90;;;;;;5031149;28;19990;-82
2022/08/17 03:27:35;;;;;;;;;;;17.60;99.90;;;;;;5017372;28;20013;-82
2022/08/17 03:30:02;;;;;;;;;;;17.60;99.90;;;;;;5016632;28;20016;-82
2022/08/17 03:32:27;;;;;;;;;;;17.60;99.90;;;;;;5017268;28;20388;-82
2022/08/17 03:34:57;;;;;;;;;;;17.70;99.90;;;;;;5002117;28;20073;-80
2022/08/17 03:37:22;;;;;;;;;;;17.50;99.90;;;;;;5018379;28;20332;-81
2022/08/17 03:39:48;;;;;;;;;;;17.80;99.90;;;;;;5000103;28;19932;-81
2022/08/17 03:42:17;;;;;;;;;;;17.70;99.90;;;;;;5016886;28;19933;-81
2022/08/17 03:44:47;;;;;;;;;;;17.60;99.90;;;;;;4993183;28;20067;-81
2022/08/17 03:58:09;;;;;;;;;;;17.70;99.90;;;;;;5023410;28;19936;-82
2022/08/17 04:00:35;;;;;;;;;;;17.50;99.90;;;;;;5016843;28;19921;-81
2022/08/17 04:03:01;;;;;;;;;;;17.70;99.90;;;;;;5018284;28;19925;-81
2022/08/17 04:05:27;;;;;;;;;;;17.70;99.90;;;;;;5017455;28;19932;-82
2022/08/17 04:07:52;;;;;;;;;;;17.70;99.90;;;;;;4991798;28;19925;-82
2022/08/17 04:10:18;;;;;;;;;;;17.90;99.90;;;;;;5002981;28;19925;-82
2022/08/17 04:12:47;;;;;;;;;;;17.80;99.90;;;;;;4984813;28;19922;-82
2022/08/17 04:15:13;;;;;;;;;;;17.80;99.90;;;;;;5001308;28;20252;-82
2022/08/17 04:17:38;;;;;;;;;;;17.70;99.90;;;;;;5000755;28;19968;-82
2022/08/17 04:20:04;;;;;;;;;;;17.80;99.90;;;;;;5001892;28;19976;-82
2022/08/17 04:22:30;;;;;;;;;;;17.70;99.90;;;;;;5001193;28;19976;-82
2022/08/17 04:24:56;;;;;;;;;;;17.60;99.90;;;;;;4984102;28;20260;-83
2022/08/17 04:27:21;;;;;;;;;;;17.60;99.90;;;;;;5002579;28;19929;-82
2022/08/17 04:29:47;;;;;;;;;;;17.60;99.90;;;;;;5002811;28;20365;-82
2022/08/17 04:32:12;;;;;;;;;;;17.60;99.90;;;;;;5004793;28;20483;-82
2022/08/17 04:34:38;;;;;;;;;;;17.60;99.90;;;;;;5004430;28;20457;-82
2022/08/17 04:37:04;;;;;;;;;;;17.80;99.90;;;;;;5003322;28;19943;-82
2022/08/17 04:39:30;;;;;;;;;;;17.90;99.90;;;;;;4985328;28;19969;-82
2022/08/17 04:42:15;;;;;;;;;;;17.70;99.90;;;;;;5001725;28;19929;-82
2022/08/17 04:44:41;;;;;;;;;;;17.70;99.90;;;;;;5001702;28;19983;-81
2022/08/17 04:47:07;;;;;;;;;;;17.60;99.90;;;;;;4984170;28;19929;-82
2022/08/17 04:49:33;;;;;;;;;;;17.70;99.90;;;;;;4985221;28;19929;-82
2022/08/17 04:51:59;;;;;;;;;;;17.70;99.90;;;;;;4984656;28;20048;-81
2022/08/17 04:54:25;;;;;;;;;;;17.70;99.90;;;;;;5000346;28;19995;-81
2022/08/17 04:56:50;;;;;;;;;;;17.70;99.90;;;;;;5001806;28;19983;-82
2022/08/17 04:59:17;;;;;;;;;;;17.70;99.90;;;;;;5001956;28;19955;-81
2022/08/17 05:01:45;;;;;;;;;;;17.70;99.90;;;;;;4999764;28;20717;-83
2022/08/17 05:04:12;;;;;;;;;;;17.70;99.90;;;;;;5001417;28;20179;-84
2022/08/17 05:06:38;;;;;;;;;;;17.50;99.90;;;;;;4984730;28;19929;-83
2022/08/17 05:09:03;;;;;;;;;;;17.60;99.90;;;;;;4999216;28;19921;-83
2022/08/17 05:11:29;;;;;;;;;;;17.70;99.90;;;;;;5019662;28;19926;-83
2022/08/17 05:13:56;;;;;;;;;;;17.70;99.90;;;;;;5000666;28;20011;-83
2022/08/17 05:16:22;;;;;;;;;;;17.70;99.90;;;;;;4991424;28;19975;-84
2022/08/17 05:18:47;;;;;;;;;;;17.70;99.90;;;;;;5004970;28;19928;-83
2022/08/17 05:21:13;;;;;;;;;;;17.80;99.90;;;;;;5003178;28;19936;-84
2022/08/17 05:23:39;;;;;;;;;;;17.80;99.90;;;;;;5007533;28;19968;-83
2022/08/17 05:26:06;;;;;;;;;;;17.80;99.90;;;;;;5003230;28;19936;-84
2022/08/17 05:28:31;;;;;;;;;;;17.80;99.90;;;;;;5002988;28;20382;-84
2022/08/17 05:31:00;;;;;;;;;;;17.80;99.90;;;;;;5005897;28;20195;-83
2022/08/17 05:33:29;;;;;;;;;;;17.90;99.90;;;;;;4987989;28;20194;-83
2022/08/17 05:35:56;;;;;;;;;;;17.80;99.90;;;;;;4987242;28;19926;-83
2022/08/17 05:38:22;;;;;;;;;;;17.80;99.90;;;;;;4987878;28;19936;-84
2022/08/17 05:40:48;;;;;;;;;;;17.80;99.90;;;;;;5008288;28;19932;-83
2022/08/17 05:43:16;;;;;;;;;;;17.90;99.90;;;;;;5008126;28;19925;-83
2022/08/17 05:45:48;;;;;;;;;;;17.80;99.90;;;;;;4988403;28;19929;-83
2022/08/17 05:48:14;;;;;;;;;;;17.90;99.90;;;;;;5003454;28;20310;-83
2022/08/17 05:50:44;;;;;;;;;;;17.90;99.90;;;;;;5008725;28;19925;-84
2022/08/17 05:53:22;;;;;;;;;;;18.10;99.90;;;;;;5002574;28;19976;-83
2022/08/17 05:56:10;;;;;;;;;;;17.90;99.90;;;;;;4990364;28;19929;-83
2022/08/17 05:58:54;;;;;;;;;;;18.00;99.90;;;;;;5001066;28;20012;-83
2022/08/17 06:01:38;;;;;;;;;;;18.00;99.90;;;;;;5005266;28;19925;-82
2022/08/17 06:04:13;;;;;;;;;;;18.00;99.90;;;;;;4986797;28;20306;-82
2022/08/17 06:06:55;;;;;;;;;;;18.00;99.90;;;;;;5002377;28;20016;-82
2022/08/17 06:09:36;;;;;;;;;;;18.00;99.90;;;;;;5003417;28;20652;-82
2022/08/17 06:12:16;;;;;;;;;;;18.10;99.90;;;;;;5006021;28;19932;-81
2022/08/17 06:14:49;;;;;;;;;;;18.10;99.90;;;;;;4986050;28;20397;-81
2022/08/17 06:17:16;;;;;;;;;;;18.30;99.90;;;;;;5003286;28;19925;-80
2022/08/17 06:19:48;;;;;;;;;;;18.20;99.90;;;;;;5002650;28;19925;-78
2022/08/17 06:22:15;;;;;;;;;;;18.20;99.90;;;;;;5000912;28;19984;-78
2022/08/17 06:24:55;;;;;;;;;;;18.30;99.90;;;;;;5001452;28;19929;-78
2022/08/17 06:27:29;;;;;;;;;;;18.30;99.90;;;;;;4999954;28;19932;-79
2022/08/17 06:30:14;;;;;;;;;;;18.30;99.90;;;;;;4999638;28;20284;-78
2022/08/17 06:32:44;;;;;;;;;;;18.40;99.90;;;;;;5000717;28;19952;-79
2022/08/17 06:35:14;;;;;;;;;;;18.40;99.90;;;;;;5001633;28;19925;-79
2022/08/17 06:37:42;;;;;;;;;;;18.40;99.90;;;;;;5018970;28;19936;-79
2022/08/17 06:40:08;;;;;;;;;;;18.50;99.90;;;;;;4999069;28;20044;-79
2022/08/17 06:42:34;;;;;;;;;;;18.50;99.90;;;;;;4998215;28;20465;-79
2022/08/17 06:45:06;;;;;;;;;;;18.60;99.90;;;;;;4983613;28;20382;-79
2022/08/17 06:47:39;;;;;;;;;;;18.60;99.90;;;;;;5001121;28;19925;-79
2022/08/17 06:50:26;;;;;;;;;;;18.60;99.90;;;;;;5002204;28;20013;-79
2022/08/17 06:53:03;;;;;;;;;;;18.60;99.90;;;;;;5001499;28;20449;-78
2022/08/17 06:55:43;;;;;;;;;;;18.70;99.90;;;;;;4998773;28;19930;-78
2022/08/17 06:58:10;;;;;;;;;;;18.80;99.90;;;;;;4981821;28;19926;-78
2022/08/17 07:00:39;;;;;;;;;;;18.90;99.90;;;;;;5000744;28;19928;-78
2022/08/17 07:03:25;;;;;;;;;;;18.90;99.90;;;;;;5000770;28;20286;-79
2022/08/17 07:05:52;;;;;;;;;;;19.00;99.90;;;;;;4999487;28;20571;-79
2022/08/17 07:08:24;;;;;;;;;;;19.20;99.90;;;;;;4981650;28;19925;-78
2022/08/17 07:10:52;;;;;;;;;;;19.10;99.90;;;;;;5000676;28;19983;-77
2022/08/17 07:13:24;;;;;;;;;;;19.10;99.90;;;;;;4999461;28;19925;-77
2022/08/17 07:15:53;;;;;;;;;;;19.20;99.90;;;;;;5002168;28;19936;-78
2022/08/17 07:18:19;;;;;;;;;;;19.30;99.90;;;;;;5002601;28;20052;-77
2022/08/17 07:20:50;;;;;;;;;;;19.30;99.90;;;;;;4996630;28;20485;-77
2022/08/17 07:23:29;;;;;;;;;;;19.40;99.90;;;;;;4994229;28;19926;-80
2022/08/17 07:26:02;;;;;;;;;;;19.50;99.90;;;;;;5016756;28;19931;-80
2022/08/17 07:28:28;;;;;;;;;;;19.50;99.90;;;;;;5013332;28;19932;-79
2022/08/17 07:30:54;;;;;;;;;;;19.70;99.90;;;;;;5002276;28;20406;-80
2022/08/17 07:33:22;;;;;;;;;;;19.80;99.90;;;;;;5001983;28;19972;-79
2022/08/17 07:35:48;;;;;;;;;;;19.90;99.90;;;;;;5000970;28;20382;-82
2022/08/17 07:38:15;;;;;;;;;;;20.10;99.90;;;;;;5001145;28;19925;-77
2022/08/17 07:40:46;;;;;;;;;;;20.10;99.90;;;;;;5000320;28;19940;-83
2022/08/17 07:43:17;;;;;;;;;;;20.20;99.90;;;;;;4982491;28;19921;-79
2022/08/17 07:48:42;;;;;;;;;;;20.30;99.90;;;;;;5000171;28;20292;-78
2022/08/17 07:51:28;;;;;;;;;;;20.40;99.90;;;;;;5000514;28;19944;-79
2022/08/17 07:53:55;;;;;;;;;;;20.50;99.90;;;;;;5000355;28;20379;-79
2022/08/17 07:56:30;;;;;;;;;;;20.60;99.90;;;;;;5000087;28;20047;-81
2022/08/17 07:59:11;;;;;;;;;;;20.60;99.90;;;;;;5002434;28;19932;-79
2022/08/17 08:01:37;;;;;;;;;;;20.80;99.90;;;;;;5003489;28;19932;-79
2022/08/17 08:04:15;;;;;;;;;;;20.80;99.90;;;;;;5000960;28;19952;-78
2022/08/17 08:06:46;;;;;;;;;;;20.80;99.90;;;;;;4985503;28;19977;-80
2022/08/17 08:09:26;;;;;;;;;;;20.70;99.90;;;;;;5011338;28;19921;-79
2022/08/17 08:11:52;;;;;;;;;;;20.60;99.90;;;;;;5025435;28;20382;-80
2022/08/17 08:14:24;;;;;;;;;;;20.60;99.90;;;;;;5024543;28;19968;-80
2022/08/17 08:17:01;;;;;;;;;;;20.60;99.90;;;;;;5014635;28;20415;-80
2022/08/17 08:19:28;;;;;;;;;;;20.60;99.90;;;;;;5021253;28;19925;-80
2022/08/17 08:21:57;;;;;;;;;;;20.60;99.90;;;;;;5013432;28;19940;-80
2022/08/17 08:24:42;;;;;;;;;;;20.60;99.90;;;;;;5003786;28;19948;-81
2022/08/17 08:27:16;;;;;;;;;;;20.60;99.90;;;;;;5023857;28;19925;-80
2022/08/17 08:29:48;;;;;;;;;;;20.60;99.90;;;;;;5013931;28;19928;-80
2022/08/17 08:32:18;;;;;;;;;;;20.60;99.90;;;;;;4996566;28;19971;-80
2022/08/17 08:34:44;;;;;;;;;;;20.70;99.90;;;;;;5021152;28;20293;-79
2022/08/17 08:37:26;;;;;;;;;;;20.60;99.90;;;;;;5021347;28;20317;-79
2022/08/17 08:39:55;;;;;;;;;;;20.70;99.90;;;;;;5022300;28;19998;-79
2022/08/17 08:42:24;;;;;;;;;;;20.80;99.90;;;;;;5012372;28;20319;-78
2022/08/17 08:45:00;;;;;;;;;;;20.80;99.90;;;;;;5014945;28;19929;-78
2022/08/17 08:47:34;;;;;;;;;;;20.80;99.90;;;;;;5014534;28;19933;-80
2022/08/17 08:50:06;;;;;;;;;;;20.80;99.90;;;;;;5018002;28;20088;-79
2022/08/17 08:52:34;;;;;;;;;;;20.70;99.90;;;;;;5014617;28;21273;-80
2022/08/17 08:55:12;;;;;;;;;;;20.80;99.90;;;;;;5028316;28;20100;-83
2022/08/17 08:57:51;;;;;;;;;;;20.80;99.90;;;;;;5031869;28;20752;-80
2022/08/17 09:00:21;;;;;;;;;;;20.80;99.90;;;;;;5013339;28;19929;-76
2022/08/17 09:03:06;;;;;;;;;;;20.80;99.90;;;;;;5017734;28;19967;-76
2022/08/17 09:05:35;;;;;;;;;;;20.80;99.90;;;;;;5017430;28;19928;-78
2022/08/17 09:08:03;;;;;;;;;;;20.80;99.90;;;;;;5013408;28;19921;-79
2022/08/17 09:10:48;;;;;;;;;;;20.90;99.90;;;;;;5012792;28;20377;-77
2022/08/17 09:13:20;;;;;;;;;;;20.90;99.90;;;;;;5008551;28;19928;-78
2022/08/17 09:15:48;;;;;;;;;;;21.00;99.90;;;;;;5013828;28;19925;-80
2022/08/17 09:18:25;;;;;;;;;;;21.20;99.90;;;;;;5014247;28;20292;-87
2022/08/17 09:20:51;;;;;;;;;;;21.40;99.90;;;;;;5025121;28;19921;-84
2022/08/17 09:23:34;;;;;;;;;;;21.90;99.90;;;;;;5016292;28;20310;-77
2022/08/17 09:26:21;;;;;;;;;;;22.30;99.90;;;;;;5000688;28;19975;-79
2022/08/17 09:28:51;;;;;;;;;;;22.70;99.90;;;;;;5013089;28;19927;-78
2022/08/17 09:31:22;;;;;;;;;;;23.00;99.90;;;;;;5001311;28;19947;-82
2022/08/17 09:33:48;;;;;;;;;;;23.20;99.90;;;;;;4998929;28;19971;-81
2022/08/17 09:36:20;;;;;;;;;;;23.30;99.90;;;;;;5011451;28;19928;-84
2022/08/17 09:38:58;;;;;;;;;;;23.30;99.90;;;;;;4997545;28;20008;-81
2022/08/17 09:41:39;;;;;;;;;;;23.20;99.90;;;;;;5012443;28;20300;-81
2022/08/17 09:44:13;;;;;;;;;;;23.10;99.90;;;;;;5010521;28;19948;-84
2022/08/17 09:46:47;;;;;;;;;;;23.00;99.90;;;;;;5018007;28;20310;-80
2022/08/17 09:49:13;;;;;;;;;;;22.80;99.90;;;;;;5016329;28;20401;-83
2022/08/17 09:51:42;;;;;;;;;;;22.70;99.90;;;;;;4989404;28;19921;-84
2022/08/17 09:54:23;;;;;;;;;;;22.60;99.90;;;;;;4992480;28;20390;-83
2022/08/17 09:56:55;;;;;;;;;;;22.60;99.90;;;;;;5007599;28;19925;-80
2022/08/17 09:59:36;;;;;;;;;;;22.50;99.90;;;;;;4995379;28;20038;-83
2022/08/17 10:02:08;;;;;;;;;;;22.50;99.90;;;;;;5018009;28;19936;-82
2022/08/17 10:04:49;;;;;;;;;;;22.60;99.90;;;;;;5024956;28;20012;-80
2022/08/17 10:07:17;;;;;;;;;;;22.50;99.90;;;;;;5026075;28;20422;-80
2022/08/17 10:09:43;;;;;;;;;;;22.40;99.90;;;;;;5025973;28;19924;-81
2022/08/17 10:12:38;;;;;;;;;;;22.40;99.90;;;;;;4998708;28;19928;-81
2022/08/17 10:15:08;;;;;;;;;;;22.40;99.90;;;;;;4981941;28;19928;-80
2022/08/17 10:17:41;;;;;;;;;;;22.50;99.90;;;;;;4992003;28;19946;-81
2022/08/17 10:20:12;;;;;;;;;;;22.40;99.90;;;;;;5016197;28;19931;-87
2022/08/17 10:28:47;;;;;;;;;;;22.60;99.90;;;;;;4923202;29;19930;-81
2022/08/17 10:31:22;;;;;;;;;;;22.60;99.90;;;;;;4912891;29;20092;-86
2022/08/17 10:33:59;;;;;;;;;;;22.60;99.90;;;;;;4972116;28;19949;-86
2022/08/17 10:36:36;;;;;;;;;;;22.50;99.90;;;;;;4994758;28;19921;-84
2022/08/17 10:39:40;;;;;;;;;;;22.60;99.90;;;;;;5010124;28;19986;-82
2022/08/17 10:42:17;;;;;;;;;;;22.50;99.90;;;;;;4985987;28;20419;-85
2022/08/17 10:44:46;;;;;;;;;;;22.50;99.90;;;;;;4970810;28;20015;-85
2022/08/17 10:47:14;;;;;;;;;;;22.50;99.90;;;;;;5003676;28;20297;-86
2022/08/17 10:49:48;;;;;;;;;;;22.50;99.90;;;;;;5000382;28;19925;-87
2022/08/17 10:52:24;;;;;;;;;;;22.50;99.90;;;;;;4996151;28;20055;-85
2022/08/17 10:54:50;;;;;;;;;;;22.50;99.90;;;;;;5029106;28;19992;-87
2022/08/17 10:57:22;;;;;;;;;;;22.60;99.90;;;;;;4995999;28;20004;-88
2022/08/17 10:59:49;;;;;;;;;;;22.80;99.90;;;;;;4994075;28;20340;-89
2022/08/17 11:02:18;;;;;;;;;;;22.80;99.90;;;;;;5011879;28;19920;-87
2022/08/17 11:04:59;;;;;;;;;;;22.80;99.90;;;;;;5008926;28;19929;-84
2022/08/17 11:07:24;;;;;;;;;;;22.80;99.90;;;;;;4995020;28;20023;-82
2022/08/17 11:10:08;;;;;;;;;;;22.90;99.90;;;;;;5012187;28;19990;-85
2022/08/17 11:12:37;;;;;;;;;;;22.90;99.90;;;;;;4995800;28;19944;-83
2022/08/17 11:15:11;;;;;;;;;;;22.90;99.90;;;;;;5011558;28;19924;-90
2022/08/17 11:17:48;;;;;;;;;;;23.00;99.90;;;;;;5005635;28;19929;-85
2022/08/17 11:20:17;;;;;;;;;;;23.00;99.90;;;;;;5009374;28;20008;-86
2022/08/17 11:23:06;;;;;;;;;;;23.00;99.90;;;;;;5012162;28;20020;-85
2022/08/17 11:25:34;;;;;;;;;;;23.10;99.90;;;;;;5008922;28;19925;-84
2022/08/17 11:28:12;;;;;;;;;;;23.00;99.90;;;;;;5023602;28;19932;-82
2022/08/17 11:30:39;;;;;;;;;;;23.10;99.90;;;;;;5007864;28;19929;-87
2022/08/17 11:33:23;;;;;;;;;;;23.10;99.90;;;;;;5008353;28;19984;-90
2022/08/17 11:35:54;;;;;;;;;;;23.10;99.90;;;;;;5005203;28;19929;-85
2022/08/17 11:38:40;;;;;;;;;;;23.10;99.90;;;;;;5007746;28;19988;-81
2022/08/17 11:41:25;;;;;;;;;;;23.20;99.90;;;;;;5008166;28;19928;-85
2022/08/17 11:44:14;;;;;;;;;;;23.20;99.90;;;;;;5008133;28;19933;-87
2022/08/17 11:52:45;;;;;;;;;;;23.50;99.90;;;;;;5011025;28;19936;-85
2022/08/17 11:55:31;;;;;;;;;;;23.50;99.90;;;;;;5012241;28;19928;-83
2022/08/17 11:58:02;;;;;;;;;;;23.40;99.90;;;;;;5013365;28;19929;-84
2022/08/17 12:00:48;;;;;;;;;;;23.40;99.90;;;;;;5012980;28;19921;-86
2022/08/17 12:03:21;;;;;;;;;;;23.30;99.90;;;;;;4994850;28;20370;-82
2022/08/17 12:05:47;;;;;;;;;;;23.20;99.90;;;;;;4998526;28;19928;-81
2022/08/17 12:08:17;;;;;;;;;;;23.30;99.90;;;;;;5012997;28;19921;-89
2022/08/17 12:10:55;;;;;;;;;;;23.30;99.90;;;;;;4997634;28;19928;-84
2022/08/17 12:13:22;;;;;;;;;;;23.40;99.90;;;;;;5029214;28;20186;-84
2022/08/17 12:15:51;;;;;;;;;;;23.40;99.90;;;;;;5031364;28;19925;-81
2022/08/17 12:18:22;;;;;;;;;;;23.50;99.90;;;;;;5011541;28;19928;-92
2022/08/17 12:20:59;;;;;;;;;;;23.40;99.90;;;;;;5014100;28;19921;-85
2022/08/17 12:23:29;;;;;;;;;;;23.40;99.90;;;;;;4997698;28;19928;-88
2022/08/17 12:25:58;;;;;;;;;;;23.40;99.90;;;;;;4998190;28;19921;-83
2022/08/17 12:28:32;;;;;;;;;;;23.40;99.90;;;;;;4997676;28;19963;-81
2022/08/17 12:30:59;;;;;;;;;;;23.50;99.90;;;;;;5013676;28;19931;-83
2022/08/17 12:33:27;;;;;;;;;;;23.50;99.90;;;;;;5014127;28;20468;-85
2022/08/17 12:36:01;;;;;;;;;;;23.50;99.90;;;;;;4998352;28;20301;-82
2022/08/17 12:38:28;;;;;;;;;;;23.50;99.90;;;;;;5013444;28;19921;-88
2022/08/17 12:40:55;;;;;;;;;;;23.50;99.90;;;;;;4997435;28;20297;-88
2022/08/17 12:43:22;;;;;;;;;;;23.50;99.90;;;;;;5013917;28;20064;-87
2022/08/17 12:45:56;;;;;;;;;;;23.40;99.90;;;;;;5013258;28;19983;-85
2022/08/17 12:48:24;;;;;;;;;;;23.40;99.90;;;;;;4997821;28;20008;-84
2022/08/17 12:50:50;;;;;;;;;;;23.30;99.90;;;;;;4998112;28;19948;-92
2022/08/17 12:53:20;;;;;;;;;;;23.30;99.90;;;;;;4996361;28;20366;-84
2022/08/17 12:55:46;;;;;;;;;;;23.20;99.90;;;;;;5018056;28;19928;-83
2022/08/17 12:58:16;;;;;;;;;;;23.20;99.90;;;;;;4997146;28;19956;-88
2022/08/17 13:00:54;;;;;;;;;;;23.20;99.90;;;;;;4999128;28;19921;-86
2022/08/17 13:03:21;;;;;;;;;;;23.10;99.90;;;;;;5015067;28;19975;-88
2022/08/17 13:06:05;;;;;;;;;;;23.20;99.90;;;;;;5019766;28;19968;-85
2022/08/17 13:08:36;;;;;;;;;;;23.10;99.90;;;;;;4997727;28;19932;-85
2022/08/17 13:11:10;;;;;;;;;;;23.20;99.90;;;;;;5012318;28;19928;-85
2022/08/17 13:13:40;;;;;;;;;;;23.20;99.90;;;;;;5013539;28;20401;-87
2022/08/17 13:16:13;;;;;;;;;;;23.10;99.90;;;;;;4997825;28;19921;-86
2022/08/17 13:18:38;;;;;;;;;;;23.10;99.90;;;;;;5012679;28;19925;-90
2022/08/17 13:21:05;;;;;;;;;;;23.20;99.90;;;;;;4996919;28;20264;-94
2022/08/17 13:23:31;;;;;;;;;;;23.00;99.90;;;;;;4998388;28;19928;-86
2022/08/17 13:26:04;;;;;;;;;;;23.00;99.90;;;;;;5014238;28;19921;-93
2022/08/17 13:28:31;;;;;;;;;;;22.90;99.90;;;;;;5031637;28;19928;-86
2022/08/17 13:31:15;;;;;;;;;;;22.90;99.90;;;;;;4997859;28;19921;-84
2022/08/17 13:33:41;;;;;;;;;;;22.90;99.90;;;;;;5013206;28;19921;-86
2022/08/17 13:36:07;;;;;;;;;;;22.70;99.90;;;;;;5013211;28;20257;-90
2022/08/17 13:38:44;;;;;;;;;;;22.70;99.90;;;;;;4997000;28;19925;-83
2022/08/17 13:41:28;;;;;;;;;;;22.70;99.90;;;;;;5030023;28;20055;-79
2022/08/17 13:43:53;;;;;;;;;;;22.60;99.90;;;;;;5012864;28;19925;-81
2022/08/17 13:46:20;;;;;;;;;;;22.70;99.90;;;;;;5030704;28;20378;-84
2022/08/17 13:48:55;;;;;;;;;;;22.70;99.90;;;;;;4997044;28;20020;-88
2022/08/17 13:51:24;;;;;;;;;;;22.70;99.90;;;;;;5019651;28;19925;-87
2022/08/17 13:53:55;;;;;;;;;;;22.60;99.90;;;;;;4996975;28;19925;-86
2022/08/17 13:56:33;;;;;;;;;;;22.60;99.90;;;;;;4997734;28;19921;-85
2022/08/17 13:59:07;;;;;;;;;;;22.50;99.90;;;;;;5013570;28;19967;-85
2022/08/17 14:01:33;;;;;;;;;;;22.40;99.90;;;;;;5013755;28;20480;-88
2022/08/17 14:04:00;;;;;;;;;;;22.40;99.90;;;;;;4997224;28;20197;-82
2022/08/17 14:06:29;;;;;;;;;;;22.40;99.90;;;;;;5030679;28;19980;-85
2022/08/17 14:08:55;;;;;;;;;;;22.30;99.90;;;;;;5011830;28;20011;-83
2022/08/17 14:11:21;;;;;;;;;;;22.40;99.90;;;;;;5030513;28;20440;-89
2022/08/17 14:13:47;;;;;;;;;;;22.40;99.90;;;;;;5012504;28;19971;-84
2022/08/17 14:16:13;;;;;;;;;;;22.50;99.90;;;;;;4996164;28;20131;-91
2022/08/17 14:18:38;;;;;;;;;;;22.70;99.90;;;;;;5013106;28;19925;-84
2022/08/17 14:21:04;;;;;;;;;;;22.80;99.90;;;;;;5029428;28;19967;-85
2022/08/17 14:23:31;;;;;;;;;;;23.00;99.90;;;;;;5029723;28;19921;-86
2022/08/17 14:25:57;;;;;;;;;;;23.00;99.90;;;;;;4996244;28;20297;-85
2022/08/17 14:28:23;;;;;;;;;;;23.00;99.90;;;;;;5028557;28;20011;-83
2022/08/17 14:30:49;;;;;;;;;;;23.00;99.90;;;;;;4995614;28;19933;-84
2022/08/17 14:33:16;;;;;;;;;;;22.70;99.90;;;;;;5012011;28;19921;-85
2022/08/17 14:35:42;;;;;;;;;;;22.60;99.90;;;;;;4996072;28;20274;-82
2022/08/17 14:38:08;;;;;;;;;;;22.40;99.90;;;;;;5011255;28;19987;-83
2022/08/17 14:40:34;;;;;;;;;;;22.40;99.90;;;;;;5012438;28;19921;-86
2022/08/17 14:43:00;;;;;;;;;;;22.30;99.90;;;;;;5007628;28;19929;-86
2022/08/17 14:45:26;;;;;;;;;;;22.20;99.90;;;;;;4996235;28;19925;-88
2022/08/17 14:47:52;;;;;;;;;;;22.20;99.90;;;;;;5029978;28;19921;-87
2022/08/17 14:50:18;;;;;;;;;;;22.00;99.90;;;;;;4996131;28;19921;-87
2022/08/17 14:52:45;;;;;;;;;;;21.90;99.90;;;;;;5010497;28;19925;-87
2022/08/17 14:55:11;;;;;;;;;;;21.80;99.90;;;;;;5013851;28;19932;-88
2022/08/17 14:57:41;;;;;;;;;;;21.70;99.90;;;;;;4996506;28;19921;-81
2022/08/17 15:00:07;;;;;;;;;;;21.70;99.90;;;;;;5011786;28;19952;-86